Aérodrome :
LOGIN :

S'inscrire | Disclaimer

   EN    FR    IT 

 










Légende :    VFR   VFR Marginal   IFR   IFR Intensif   IFR Très Intensif
Visi : 
Plafond : 
>= 8 km
>= 3000ft
5 à 8 km
1000 à 3000 ft
1500m à 5 km
500 à 1000 ft
800 à 1500m
200 à 500 ft
< 800m
< 200 ft
Symboles :   Orages  Brouillard  Fortes neiges  Fortes précipitations  Vent > 20 kt
SIGMETs :   Divers  Orages  Givrage  Turbulence  Onde Orograph.  Cendres Volcan.






- Altitude de l'aérodrome : 157 ft
- Code IATA : LIL


LFQQ - Lille Lesquin

DERNIER METAR :
  • 272030Z AUTO 26015G26KT 9999 4200 RA FEW017/// SCT047/// BKN066/// ///TCU 04/01 Q1011 BECMG 23005KT NSW BKN025

METARs EXPIRÉS :
  • 272000Z AUTO 26007KT 9999 FEW047/// BKN074/// ///TCU 04/00 Q1010 BECMG BKN025
  • 271930Z AUTO 27009KT 9999 FEW043 BKN050 BKN068 04/00 Q1010 NOSIG
  • 271900Z AUTO 28010KT 9999 FEW039 04/01 Q1009 NOSIG
  • 271830Z AUTO 29012KT CAVOK 04/00 Q1008 NOSIG
  • 271800Z AUTO 30012KT 9999 FEW037 SCT048 BKN060 05/01 Q1006 NOSIG

TAF TAF LFQQ
Valide du 27 à 18h jusqu'au 29 à 00h UTC


271700Z 2718/2824 31020G30KT 9999 BKN025
BECMG 2718/2719 30013KT
BECMG 2721/2724 23005KT
BECMG 2811/2814 18020G30KT 4000 RA OVC013
BECMG 2817/2819 19015KT 2000 DZ OVC004
FM282200 21015KT 9999 BKN030
ATIS : +33 3 20 16 19 54



MET'MAP, la Météo Aéronautique d'un coup d'oeil ! - Copyright ORBIFLY Décembre 2007 - Disclaimer

ORBIFLY MET'MAP TEAM :

Programmation & Développement : Alexandra Zaïnal
Sur une idée originale de : Baudouin d'Aumeries
Assistance à la programmation : Marc-Olivier Méhu
Soutien technique & logistique : Manuel Goepfert

Contact : metmap@orbifly.com




SOURCES & CREDITS :

   NOAA